sensor_id;sensor_type;location;lat;lon;timestamp;temperature;humidity
66608;DHT22;53462;39.616;8.824;2023-02-15T00:00:43;7.00;99.90
66608;DHT22;53462;39.616;8.824;2023-02-15T00:03:09;7.10;99.90
66608;DHT22;53462;39.616;8.824;2023-02-15T00:05:35;7.10;99.90
66608;DHT22;53462;39.616;8.824;2023-02-15T00:08:01;7.10;99.90
66608;DHT22;53462;39.616;8.824;2023-02-15T00:10:26;6.80;99.90
66608;DHT22;53462;39.616;8.824;2023-02-15T00:12:52;6.80;99.90
66608;DHT22;53462;39.616;8.824;2023-02-15T00:15:18;7.00;99.90
66608;DHT22;53462;39.616;8.824;2023-02-15T00:17:44;6.90;99.90
66608;DHT22;53462;39.616;8.824;2023-02-15T00:20:10;6.90;99.90
66608;DHT22;53462;39.616;8.824;2023-02-15T00:22:36;6.90;99.90
66608;DHT22;53462;39.616;8.824;2023-02-15T00:25:02;6.90;99.90
66608;DHT22;53462;39.616;8.824;2023-02-15T00:27:29;7.00;99.90
66608;DHT22;53462;39.616;8.824;2023-02-15T00:29:55;7.00;99.90
66608;DHT22;53462;39.616;8.824;2023-02-15T00:32:21;7.00;99.90
66608;DHT22;53462;39.616;8.824;2023-02-15T00:34:47;7.00;99.90
66608;DHT22;53462;39.616;8.824;2023-02-15T00:37:13;7.10;99.90
66608;DHT22;53462;39.616;8.824;2023-02-15T00:39:38;6.90;99.90
66608;DHT22;53462;39.616;8.824;2023-02-15T00:42:06;6.60;99.90
66608;DHT22;53462;39.616;8.824;2023-02-15T00:44:32;6.50;99.90
66608;DHT22;53462;39.616;8.824;2023-02-15T00:46:58;6.60;99.90
66608;DHT22;53462;39.616;8.824;2023-02-15T00:49:24;6.40;99.90
66608;DHT22;53462;39.616;8.824;2023-02-15T00:51:49;6.20;99.90
66608;DHT22;53462;39.616;8.824;2023-02-15T00:54:15;6.40;99.90
66608;DHT22;53462;39.616;8.824;2023-02-15T00:56:41;6.50;99.90
66608;DHT22;53462;39.616;8.824;2023-02-15T00:59:08;6.20;99.90
66608;DHT22;53462;39.616;8.824;2023-02-15T01:01:34;6.10;99.90
66608;DHT22;53462;39.616;8.824;2023-02-15T01:04:01;6.10;99.90
66608;DHT22;53462;39.616;8.824;2023-02-15T01:06:29;6.10;99.90
66608;DHT22;53462;39.616;8.824;2023-02-15T01:08:55;6.10;99.90
66608;DHT22;53462;39.616;8.824;2023-02-15T01:11:22;6.10;99.90
66608;DHT22;53462;39.616;8.824;2023-02-15T01:13:54;6.00;99.90
66608;DHT22;53462;39.616;8.824;2023-02-15T01:16:21;6.00;99.90
66608;DHT22;53462;39.616;8.824;2023-02-15T01:18:48;6.00;99.90
66608;DHT22;53462;39.616;8.824;2023-02-15T01:21:17;6.00;99.90
66608;DHT22;53462;39.616;8.824;2023-02-15T01:23:44;6.00;99.90
66608;DHT22;53462;39.616;8.824;2023-02-15T01:26:12;6.00;99.90
66608;DHT22;53462;39.616;8.824;2023-02-15T01:28:39;5.80;99.90
66608;DHT22;53462;39.616;8.824;2023-02-15T01:31:10;5.70;99.90
66608;DHT22;53462;39.616;8.824;2023-02-15T01:33:37;5.60;99.90
66608;DHT22;53462;39.616;8.824;2023-02-15T01:36:03;5.70;99.90
66608;DHT22;53462;39.616;8.824;2023-02-15T01:38:31;5.80;99.90
66608;DHT22;53462;39.616;8.824;2023-02-15T01:40:57;5.90;99.90
66608;DHT22;53462;39.616;8.824;2023-02-15T01:44:03;5.90;99.90
66608;DHT22;53462;39.616;8.824;2023-02-15T01:46:36;5.90;99.90
66608;DHT22;53462;39.616;8.824;2023-02-15T01:49:24;6.00;99.90
66608;DHT22;53462;39.616;8.824;2023-02-15T01:51:52;5.90;99.90
66608;DHT22;53462;39.616;8.824;2023-02-15T01:54:45;5.90;99.90
66608;DHT22;53462;39.616;8.824;2023-02-15T01:57:16;5.80;99.90
66608;DHT22;53462;39.616;8.824;2023-02-15T01:59:47;5.90;99.90
66608;DHT22;53462;39.616;8.824;2023-02-15T02:02:16;6.10;99.90
66608;DHT22;53462;39.616;8.824;2023-02-15T02:04:48;6.20;99.90
66608;DHT22;53462;39.616;8.824;2023-02-15T02:07:20;6.30;99.90
66608;DHT22;53462;39.616;8.824;2023-02-15T02:09:47;6.30;99.90
66608;DHT22;53462;39.616;8.824;2023-02-15T02:12:14;6.30;99.90
66608;DHT22;53462;39.616;8.824;2023-02-15T02:14:41;6.40;99.90
66608;DHT22;53462;39.616;8.824;2023-02-15T02:17:18;6.30;99.90
66608;DHT22;53462;39.616;8.824;2023-02-15T02:34:42;6.40;99.90
66608;DHT22;53462;39.616;8.824;2023-02-15T02:40:25;6.20;99.90
66608;DHT22;53462;39.616;8.824;2023-02-15T02:44:12;5.70;99.90
66608;DHT22;53462;39.616;8.824;2023-02-15T02:46:28;5.40;99.90
66608;DHT22;53462;39.616;8.824;2023-02-15T02:48:56;5.40;99.90
66608;DHT22;53462;39.616;8.824;2023-02-15T02:51:22;5.40;99.90
66608;DHT22;53462;39.616;8.824;2023-02-15T02:53:53;5.30;99.90
66608;DHT22;53462;39.616;8.824;2023-02-15T02:56:41;5.30;99.90
66608;DHT22;53462;39.616;8.824;2023-02-15T02:59:19;5.50;99.90
66608;DHT22;53462;39.616;8.824;2023-02-15T03:01:48;5.70;99.90
66608;DHT22;53462;39.616;8.824;2023-02-15T03:04:22;5.80;99.90
66608;DHT22;53462;39.616;8.824;2023-02-15T03:06:59;5.80;99.90
66608;DHT22;53462;39.616;8.824;2023-02-15T03:09:29;5.70;99.90
66608;DHT22;53462;39.616;8.824;2023-02-15T03:12:01;5.70;99.90
66608;DHT22;53462;39.616;8.824;2023-02-15T03:14:30;5.80;99.90
66608;DHT22;53462;39.616;8.824;2023-02-15T03:16:56;5.70;99.90
66608;DHT22;53462;39.616;8.824;2023-02-15T03:19:26;5.60;99.90
66608;DHT22;53462;39.616;8.824;2023-02-15T03:22:08;5.50;99.90
66608;DHT22;53462;39.616;8.824;2023-02-15T03:24:44;5.20;99.90
66608;DHT22;53462;39.616;8.824;2023-02-15T03:27:16;5.00;99.90
66608;DHT22;53462;39.616;8.824;2023-02-15T03:29:50;4.90;99.90
66608;DHT22;53462;39.616;8.824;2023-02-15T03:32:18;4.90;99.90
66608;DHT22;53462;39.616;8.824;2023-02-15T03:34:44;5.00;99.90
66608;DHT22;53462;39.616;8.824;2023-02-15T03:40:06;5.70;99.90
66608;DHT22;53462;39.616;8.824;2023-02-15T03:43:09;5.60;99.90
66608;DHT22;53462;39.616;8.824;2023-02-15T03:45:38;5.70;99.90
66608;DHT22;53462;39.616;8.824;2023-02-15T03:48:30;5.80;99.90
66608;DHT22;53462;39.616;8.824;2023-02-15T03:51:04;5.80;99.90
66608;DHT22;53462;39.616;8.824;2023-02-15T03:53:50;5.60;99.90
66608;DHT22;53462;39.616;8.824;2023-02-15T03:56:17;5.40;99.90
66608;DHT22;53462;39.616;8.824;2023-02-15T03:58:43;5.40;99.90
66608;DHT22;53462;39.616;8.824;2023-02-15T04:01:58;5.40;99.90
66608;DHT22;53462;39.616;8.824;2023-02-15T04:04:37;5.40;99.90
66608;DHT22;53462;39.616;8.824;2023-02-15T04:07:05;5.60;99.90
66608;DHT22;53462;39.616;8.824;2023-02-15T04:09:32;5.40;99.90
66608;DHT22;53462;39.616;8.824;2023-02-15T04:12:16;5.40;99.90
66608;DHT22;53462;39.616;8.824;2023-02-15T04:14:42;5.40;99.90
66608;DHT22;53462;39.616;8.824;2023-02-15T04:17:26;5.40;99.90
66608;DHT22;53462;39.616;8.824;2023-02-15T04:19:52;5.50;99.90
66608;DHT22;53462;39.616;8.824;2023-02-15T04:22:37;5.40;99.90
66608;DHT22;53462;39.616;8.824;2023-02-15T04:25:21;5.30;99.90
66608;DHT22;53462;39.616;8.824;2023-02-15T04:27:50;5.30;99.90
66608;DHT22;53462;39.616;8.824;2023-02-15T04:30:18;4.90;99.90
66608;DHT22;53462;39.616;8.824;2023-02-15T04:32:44;4.70;99.90
66608;DHT22;53462;39.616;8.824;2023-02-15T04:35:11;4.90;99.90
66608;DHT22;53462;39.616;8.824;2023-02-15T04:37:38;5.00;99.90
66608;DHT22;53462;39.616;8.824;2023-02-15T04:40:06;5.10;99.90
66608;DHT22;53462;39.616;8.824;2023-02-15T04:42:32;5.00;99.90
66608;DHT22;53462;39.616;8.824;2023-02-15T04:44:58;5.00;99.90
66608;DHT22;53462;39.616;8.824;2023-02-15T04:47:24;5.00;99.90
66608;DHT22;53462;39.616;8.824;2023-02-15T04:49:50;4.90;99.90
66608;DHT22;53462;39.616;8.824;2023-02-15T04:52:16;4.90;99.90
66608;DHT22;53462;39.616;8.824;2023-02-15T04:54:45;4.80;99.90
66608;DHT22;53462;39.616;8.824;2023-02-15T04:57:11;4.80;99.90
66608;DHT22;53462;39.616;8.824;2023-02-15T04:59:37;4.80;99.90
66608;DHT22;53462;39.616;8.824;2023-02-15T05:02:03;4.70;99.90
66608;DHT22;53462;39.616;8.824;2023-02-15T05:04:29;4.80;99.90
66608;DHT22;53462;39.616;8.824;2023-02-15T05:06:55;4.90;99.90
66608;DHT22;53462;39.616;8.824;2023-02-15T05:09:21;5.10;99.90
66608;DHT22;53462;39.616;8.824;2023-02-15T05:11:47;5.00;99.90
66608;DHT22;53462;39.616;8.824;2023-02-15T05:14:13;5.10;99.90
66608;DHT22;53462;39.616;8.824;2023-02-15T05:16:39;4.90;99.90
66608;DHT22;53462;39.616;8.824;2023-02-15T05:19:05;4.80;99.90
66608;DHT22;53462;39.616;8.824;2023-02-15T05:21:31;4.90;99.90
66608;DHT22;53462;39.616;8.824;2023-02-15T05:23:57;5.00;99.90
66608;DHT22;53462;39.616;8.824;2023-02-15T05:26:24;4.90;99.90
66608;DHT22;53462;39.616;8.824;2023-02-15T05:29:09;4.60;99.90
66608;DHT22;53462;39.616;8.824;2023-02-15T05:31:36;4.30;99.90
66608;DHT22;53462;39.616;8.824;2023-02-15T05:34:02;4.40;99.90
66608;DHT22;53462;39.616;8.824;2023-02-15T05:36:28;4.40;99.90
66608;DHT22;53462;39.616;8.824;2023-02-15T05:38:55;4.70;99.90
66608;DHT22;53462;39.616;8.824;2023-02-15T05:41:21;5.00;99.90
66608;DHT22;53462;39.616;8.824;2023-02-15T05:43:47;4.80;99.90
66608;DHT22;53462;39.616;8.824;2023-02-15T05:46:13;4.60;99.90
66608;DHT22;53462;39.616;8.824;2023-02-15T05:48:39;4.60;99.90
66608;DHT22;53462;39.616;8.824;2023-02-15T05:51:12;4.40;99.90
66608;DHT22;53462;39.616;8.824;2023-02-15T05:53:40;4.40;99.90
66608;DHT22;53462;39.616;8.824;2023-02-15T05:56:11;4.30;99.90
66608;DHT22;53462;39.616;8.824;2023-02-15T05:58:41;4.20;99.90
66608;DHT22;53462;39.616;8.824;2023-02-15T06:01:12;4.30;99.90
66608;DHT22;53462;39.616;8.824;2023-02-15T06:03:39;4.50;99.90
66608;DHT22;53462;39.616;8.824;2023-02-15T06:06:05;4.40;99.90
66608;DHT22;53462;39.616;8.824;2023-02-15T06:08:33;4.50;99.90
66608;DHT22;53462;39.616;8.824;2023-02-15T06:10:59;4.30;99.90
66608;DHT22;53462;39.616;8.824;2023-02-15T06:13:25;4.00;99.90
66608;DHT22;53462;39.616;8.824;2023-02-15T06:15:51;3.70;99.90
66608;DHT22;53462;39.616;8.824;2023-02-15T06:18:17;3.60;99.90
66608;DHT22;53462;39.616;8.824;2023-02-15T06:20:45;3.50;99.90
66608;DHT22;53462;39.616;8.824;2023-02-15T06:23:11;3.70;99.90
66608;DHT22;53462;39.616;8.824;2023-02-15T06:25:37;3.70;99.90
66608;DHT22;53462;39.616;8.824;2023-02-15T06:28:03;3.80;99.90
66608;DHT22;53462;39.616;8.824;2023-02-15T06:30:29;3.80;99.90
66608;DHT22;53462;39.616;8.824;2023-02-15T06:32:55;3.90;99.90
66608;DHT22;53462;39.616;8.824;2023-02-15T06:35:21;3.80;99.90
66608;DHT22;53462;39.616;8.824;2023-02-15T06:37:47;3.90;99.90
66608;DHT22;53462;39.616;8.824;2023-02-15T06:40:14;4.30;99.90
66608;DHT22;53462;39.616;8.824;2023-02-15T06:42:41;4.70;99.90
66608;DHT22;53462;39.616;8.824;2023-02-15T06:45:08;4.80;99.90
66608;DHT22;53462;39.616;8.824;2023-02-15T06:47:34;4.90;99.90
66608;DHT22;53462;39.616;8.824;2023-02-15T06:50:01;5.00;99.90
66608;DHT22;53462;39.616;8.824;2023-02-15T06:52:27;5.30;99.90
66608;DHT22;53462;39.616;8.824;2023-02-15T06:54:53;5.50;99.90
66608;DHT22;53462;39.616;8.824;2023-02-15T06:57:19;5.40;99.90
66608;DHT22;53462;39.616;8.824;2023-02-15T06:59:45;5.30;99.90
66608;DHT22;53462;39.616;8.824;2023-02-15T07:02:12;5.40;99.90
66608;DHT22;53462;39.616;8.824;2023-02-15T07:04:38;5.50;99.90
66608;DHT22;53462;39.616;8.824;2023-02-15T07:07:04;5.40;99.90
66608;DHT22;53462;39.616;8.824;2023-02-15T07:09:30;5.50;99.90
66608;DHT22;53462;39.616;8.824;2023-02-15T07:11:56;5.70;99.90
66608;DHT22;53462;39.616;8.824;2023-02-15T07:14:40;6.30;99.90
66608;DHT22;53462;39.616;8.824;2023-02-15T07:17:06;7.40;99.90
66608;DHT22;53462;39.616;8.824;2023-02-15T07:19:32;7.90;99.90
66608;DHT22;53462;39.616;8.824;2023-02-15T07:21:58;7.90;99.90
66608;DHT22;53462;39.616;8.824;2023-02-15T07:24:24;8.20;99.90
66608;DHT22;53462;39.616;8.824;2023-02-15T07:26:50;9.20;99.90
66608;DHT22;53462;39.616;8.824;2023-02-15T07:29:17;9.30;99.90
66608;DHT22;53462;39.616;8.824;2023-02-15T07:31:43;10.60;99.90
66608;DHT22;53462;39.616;8.824;2023-02-15T07:34:11;11.80;94.90
66608;DHT22;53462;39.616;8.824;2023-02-15T07:36:37;13.00;87.30
66608;DHT22;53462;39.616;8.824;2023-02-15T07:39:03;13.30;84.50
66608;DHT22;53462;39.616;8.824;2023-02-15T07:41:29;13.70;84.00
66608;DHT22;53462;39.616;8.824;2023-02-15T07:43:55;14.80;80.00
66608;DHT22;53462;39.616;8.824;2023-02-15T07:46:21;15.60;75.40
66608;DHT22;53462;39.616;8.824;2023-02-15T07:48:47;15.80;73.90
66608;DHT22;53462;39.616;8.824;2023-02-15T07:51:13;16.70;72.90
66608;DHT22;53462;39.616;8.824;2023-02-15T07:53:40;17.10;61.90
66608;DHT22;53462;39.616;8.824;2023-02-15T07:56:10;17.40;58.10
66608;DHT22;53462;39.616;8.824;2023-02-15T07:58:37;16.70;60.90
66608;DHT22;53462;39.616;8.824;2023-02-15T08:01:27;16.80;61.30
66608;DHT22;53462;39.616;8.824;2023-02-15T08:03:54;17.50;57.10
66608;DHT22;53462;39.616;8.824;2023-02-15T08:06:22;16.60;60.50
66608;DHT22;53462;39.616;8.824;2023-02-15T08:08:48;16.90;61.40
66608;DHT22;53462;39.616;8.824;2023-02-15T08:11:26;17.20;61.80
66608;DHT22;53462;39.616;8.824;2023-02-15T08:14:08;18.70;57.00
66608;DHT22;53462;39.616;8.824;2023-02-15T08:16:35;18.50;55.50
66608;DHT22;53462;39.616;8.824;2023-02-15T08:19:07;18.80;54.50
66608;DHT22;53462;39.616;8.824;2023-02-15T08:21:35;19.40;53.50
66608;DHT22;53462;39.616;8.824;2023-02-15T08:24:02;20.00;51.60
66608;DHT22;53462;39.616;8.824;2023-02-15T08:26:29;20.10;49.90
66608;DHT22;53462;39.616;8.824;2023-02-15T08:28:56;20.50;49.20
66608;DHT22;53462;39.616;8.824;2023-02-15T08:31:23;21.10;47.60
66608;DHT22;53462;39.616;8.824;2023-02-15T08:33:50;21.00;47.90
66608;DHT22;53462;39.616;8.824;2023-02-15T08:36:19;21.60;46.30
66608;DHT22;53462;39.616;8.824;2023-02-15T08:38:46;21.40;46.80
66608;DHT22;53462;39.616;8.824;2023-02-15T08:43:47;23.20;44.40
66608;DHT22;53462;39.616;8.824;2023-02-15T08:46:14;22.50;44.50
66608;DHT22;53462;39.616;8.824;2023-02-15T08:48:41;22.20;45.70
66608;DHT22;53462;39.616;8.824;2023-02-15T08:51:12;22.30;46.30
66608;DHT22;53462;39.616;8.824;2023-02-15T08:53:41;22.90;44.40
66608;DHT22;53462;39.616;8.824;2023-02-15T08:56:08;23.40;44.20
66608;DHT22;53462;39.616;8.824;2023-02-15T08:58:34;23.50;43.20
66608;DHT22;53462;39.616;8.824;2023-02-15T09:01:00;23.90;42.00
66608;DHT22;53462;39.616;8.824;2023-02-15T09:03:29;24.10;42.90
66608;DHT22;53462;39.616;8.824;2023-02-15T09:05:59;24.10;42.30
66608;DHT22;53462;39.616;8.824;2023-02-15T09:08:27;24.20;41.10
66608;DHT22;53462;39.616;8.824;2023-02-15T09:10:53;24.20;43.20
66608;DHT22;53462;39.616;8.824;2023-02-15T09:13:20;25.50;40.60
66608;DHT22;53462;39.616;8.824;2023-02-15T09:15:46;25.40;39.60
66608;DHT22;53462;39.616;8.824;2023-02-15T09:18:12;25.60;39.50
66608;DHT22;53462;39.616;8.824;2023-02-15T09:20:43;26.50;38.40
66608;DHT22;53462;39.616;8.824;2023-02-15T09:23:10;26.70;37.30
66608;DHT22;53462;39.616;8.824;2023-02-15T09:25:36;25.50;38.80
66608;DHT22;53462;39.616;8.824;2023-02-15T09:28:02;25.10;38.80
66608;DHT22;53462;39.616;8.824;2023-02-15T09:30:28;25.70;39.70
66608;DHT22;53462;39.616;8.824;2023-02-15T09:32:54;26.00;37.80
66608;DHT22;53462;39.616;8.824;2023-02-15T09:35:20;26.10;37.40
66608;DHT22;53462;39.616;8.824;2023-02-15T09:37:45;25.30;39.10
66608;DHT22;53462;39.616;8.824;2023-02-15T09:40:13;24.50;38.70
66608;DHT22;53462;39.616;8.824;2023-02-15T09:43:33;25.20;38.80
66608;DHT22;53462;39.616;8.824;2023-02-15T09:46:44;25.30;37.50
66608;DHT22;53462;39.616;8.824;2023-02-15T09:48:42;25.90;37.60
66608;DHT22;53462;39.616;8.824;2023-02-15T09:52:04;26.70;36.20
66608;DHT22;53462;39.616;8.824;2023-02-15T09:54:33;26.70;34.70
66608;DHT22;53462;39.616;8.824;2023-02-15T09:57:20;27.20;34.70
66608;DHT22;53462;39.616;8.824;2023-02-15T10:28:00;19.70;47.60
66608;DHT22;53462;39.616;8.824;2023-02-15T10:30:50;19.00;51.90
66608;DHT22;53462;39.616;8.824;2023-02-15T10:54:48;19.20;50.70
66608;DHT22;53462;39.616;8.824;2023-02-15T11:06:15;20.00;47.20
66608;DHT22;53462;39.616;8.824;2023-02-15T11:08:51;19.10;49.20
66608;DHT22;53462;39.616;8.824;2023-02-15T11:11:43;19.00;47.80
66608;DHT22;53462;39.616;8.824;2023-02-15T11:17:13;19.90;45.20
66608;DHT22;53462;39.616;8.824;2023-02-15T11:20:08;19.80;45.30
66608;DHT22;53462;39.616;8.824;2023-02-15T11:22:33;18.50;48.90
66608;DHT22;53462;39.616;8.824;2023-02-15T11:25:01;18.80;47.50
66608;DHT22;53462;39.616;8.824;2023-02-15T11:27:32;19.00;48.80
66608;DHT22;53462;39.616;8.824;2023-02-15T11:30:09;19.00;47.70
66608;DHT22;53462;39.616;8.824;2023-02-15T11:32:40;19.10;49.00
66608;DHT22;53462;39.616;8.824;2023-02-15T11:35:27;19.90;47.60
66608;DHT22;53462;39.616;8.824;2023-02-15T11:40:32;20.00;45.40
66608;DHT22;53462;39.616;8.824;2023-02-15T11:43:06;19.20;46.20
66608;DHT22;53462;39.616;8.824;2023-02-15T11:45:34;19.20;46.60
66608;DHT22;53462;39.616;8.824;2023-02-15T11:48:01;19.30;46.10
66608;DHT22;53462;39.616;8.824;2023-02-15T11:50:33;19.40;46.80
66608;DHT22;53462;39.616;8.824;2023-02-15T11:53:06;19.40;43.70
66608;DHT22;53462;39.616;8.824;2023-02-15T11:55:35;19.40;45.70
66608;DHT22;53462;39.616;8.824;2023-02-15T11:58:25;18.80;44.80
66608;DHT22;53462;39.616;8.824;2023-02-15T12:03:50;18.90;44.80
66608;DHT22;53462;39.616;8.824;2023-02-15T12:08:55;19.00;44.80
66608;DHT22;53462;39.616;8.824;2023-02-15T12:11:43;18.40;42.80
66608;DHT22;53462;39.616;8.824;2023-02-15T12:14:11;18.30;44.00
66608;DHT22;53462;39.616;8.824;2023-02-15T12:16:49;19.60;42.90
66608;DHT22;53462;39.616;8.824;2023-02-15T12:19:37;20.00;41.70
66608;DHT22;53462;39.616;8.824;2023-02-15T12:22:38;19.10;42.80
66608;DHT22;53462;39.616;8.824;2023-02-15T12:25:30;19.20;42.50
66608;DHT22;53462;39.616;8.824;2023-02-15T12:27:59;18.70;41.80
66608;DHT22;53462;39.616;8.824;2023-02-15T12:30:26;18.60;42.20
66608;DHT22;53462;39.616;8.824;2023-02-15T12:32:56;18.60;41.70
66608;DHT22;53462;39.616;8.824;2023-02-15T12:35:31;18.70;42.40
66608;DHT22;53462;39.616;8.824;2023-02-15T12:38:19;19.30;41.90
66608;DHT22;53462;39.616;8.824;2023-02-15T12:41:01;18.40;41.50
66608;DHT22;53462;39.616;8.824;2023-02-15T12:43:35;18.80;41.00
66608;DHT22;53462;39.616;8.824;2023-02-15T12:46:19;19.30;41.00
66608;DHT22;53462;39.616;8.824;2023-02-15T12:48:46;19.80;40.40
66608;DHT22;53462;39.616;8.824;2023-02-15T12:51:14;19.00;40.70
66608;DHT22;53462;39.616;8.824;2023-02-15T12:53:41;18.70;41.30
66608;DHT22;53462;39.616;8.824;2023-02-15T12:56:09;19.20;40.60
66608;DHT22;53462;39.616;8.824;2023-02-15T12:58:38;18.80;41.60
66608;DHT22;53462;39.616;8.824;2023-02-15T13:01:14;18.90;42.10
66608;DHT22;53462;39.616;8.824;2023-02-15T13:03:58;18.90;41.80
66608;DHT22;53462;39.616;8.824;2023-02-15T13:06:26;19.10;41.30
66608;DHT22;53462;39.616;8.824;2023-02-15T13:08:58;18.50;
66608;DHT22;53462;39.616;8.824;2023-02-15T13:11:31;18.90;42.20
66608;DHT22;53462;39.616;8.824;2023-02-15T13:14:16;18.80;42.10
66608;DHT22;53462;39.616;8.824;2023-02-15T13:16:44;19.10;41.50
66608;DHT22;53462;39.616;8.824;2023-02-15T13:22:05;18.80;41.90
66608;DHT22;53462;39.616;8.824;2023-02-15T13:24:45;18.90;41.30
66608;DHT22;53462;39.616;8.824;2023-02-15T13:27:18;18.80;41.30
66608;DHT22;53462;39.616;8.824;2023-02-15T13:29:50;19.00;41.60
66608;DHT22;53462;39.616;8.824;2023-02-15T13:32:49;18.90;41.50
66608;DHT22;53462;39.616;8.824;2023-02-15T13:35:17;19.50;42.30
66608;DHT22;53462;39.616;8.824;2023-02-15T13:38:21;19.60;39.80
66608;DHT22;53462;39.616;8.824;2023-02-15T13:40:53;19.50;42.60
66608;DHT22;53462;39.616;8.824;2023-02-15T13:43:43;19.60;40.90
66608;DHT22;53462;39.616;8.824;2023-02-15T13:46:45;18.60;41.50
66608;DHT22;53462;39.616;8.824;2023-02-15T13:58:07;18.50;42.40
66608;DHT22;53462;39.616;8.824;2023-02-15T14:01:09;18.20;42.50
66608;DHT22;53462;39.616;8.824;2023-02-15T14:11:48;18.90;40.50
66608;DHT22;53462;39.616;8.824;2023-02-15T14:19:52;19.80;44.90
66608;DHT22;53462;39.616;8.824;2023-02-15T14:22:35;19.40;45.30
66608;DHT22;53462;39.616;8.824;2023-02-15T14:27:32;19.30;47.20
66608;DHT22;53462;39.616;8.824;2023-02-15T14:30:20;18.80;46.30
66608;DHT22;53462;39.616;8.824;2023-02-15T14:32:53;19.00;47.50
66608;DHT22;53462;39.616;8.824;2023-02-15T14:35:30;19.10;47.10
66608;DHT22;53462;39.616;8.824;2023-02-15T14:41:09;18.60;47.20
66608;DHT22;53462;39.616;8.824;2023-02-15T14:46:48;18.70;48.70
66608;DHT22;53462;39.616;8.824;2023-02-15T14:49:28;19.00;48.50
66608;DHT22;53462;39.616;8.824;2023-02-15T14:52:01;19.20;47.60
66608;DHT22;53462;39.616;8.824;2023-02-15T15:04:41;18.50;54.00
66608;DHT22;53462;39.616;8.824;2023-02-15T15:07:17;18.10;54.10
66608;DHT22;53462;39.616;8.824;2023-02-15T15:09:48;17.90;54.90
66608;DHT22;53462;39.616;8.824;2023-02-15T15:14:53;17.80;55.50
66608;DHT22;53462;39.616;8.824;2023-02-15T15:20:06;17.50;57.30
66608;DHT22;53462;39.616;8.824;2023-02-15T15:22:40;17.60;57.20
66608;DHT22;53462;39.616;8.824;2023-02-15T15:27:54;17.20;57.30
66608;DHT22;53462;39.616;8.824;2023-02-15T15:49:16;16.30;63.30
66608;DHT22;53462;39.616;8.824;2023-02-15T15:51:44;16.40;63.20
66608;DHT22;53462;39.616;8.824;2023-02-15T15:54:22;16.30;62.70
66608;DHT22;53462;39.616;8.824;2023-02-15T15:56:58;15.90;62.70
66608;DHT22;53462;39.616;8.824;2023-02-15T15:59:27;15.70;63.10
66608;DHT22;53462;39.616;8.824;2023-02-15T16:01:54;15.60;63.70
66608;DHT22;53462;39.616;8.824;2023-02-15T16:04:29;15.60;63.40
66608;DHT22;53462;39.616;8.824;2023-02-15T16:10:04;15.10;64.50
66608;DHT22;53462;39.616;8.824;2023-02-15T16:12:31;15.00;64.70
66608;DHT22;53462;39.616;8.824;2023-02-15T16:14:58;14.90;65.90
66608;DHT22;53462;39.616;8.824;2023-02-15T16:17:29;14.90;65.70
66608;DHT22;53462;39.616;8.824;2023-02-15T16:20:18;14.60;67.20
66608;DHT22;53462;39.616;8.824;2023-02-15T16:23:16;14.60;68.70
66608;DHT22;53462;39.616;8.824;2023-02-15T16:28:26;14.50;68.90
66608;DHT22;53462;39.616;8.824;2023-02-15T16:31:12;14.20;70.50
66608;DHT22;53462;39.616;8.824;2023-02-15T16:33:39;14.00;71.00
66608;DHT22;53462;39.616;8.824;2023-02-15T16:36:20;14.00;70.90
66608;DHT22;53462;39.616;8.824;2023-02-15T16:41:15;13.50;73.80
66608;DHT22;53462;39.616;8.824;2023-02-15T16:43:44;13.50;73.40
66608;DHT22;53462;39.616;8.824;2023-02-15T16:46:15;13.30;74.50
66608;DHT22;53462;39.616;8.824;2023-02-15T16:48:46;13.30;74.90
66608;DHT22;53462;39.616;8.824;2023-02-15T16:51:30;13.20;75.40
66608;DHT22;53462;39.616;8.824;2023-02-15T16:54:00;13.10;76.40
66608;DHT22;53462;39.616;8.824;2023-02-15T16:56:30;13.10;76.70
66608;DHT22;53462;39.616;8.824;2023-02-15T16:58:57;12.90;77.10
66608;DHT22;53462;39.616;8.824;2023-02-15T17:01:29;12.90;77.80
66608;DHT22;53462;39.616;8.824;2023-02-15T17:07:00;12.50;79.40
66608;DHT22;53462;39.616;8.824;2023-02-15T17:09:28;12.40;80.70
66608;DHT22;53462;39.616;8.824;2023-02-15T17:11:54;12.30;81.50
66608;DHT22;53462;39.616;8.824;2023-02-15T17:14:27;12.20;82.30
66608;DHT22;53462;39.616;8.824;2023-02-15T17:17:12;12.30;82.60
66608;DHT22;53462;39.616;8.824;2023-02-15T17:19:51;12.30;82.40
66608;DHT22;53462;39.616;8.824;2023-02-15T17:22:25;12.00;83.10
66608;DHT22;53462;39.616;8.824;2023-02-15T17:25:01;11.80;84.40
66608;DHT22;53462;39.616;8.824;2023-02-15T17:27:31;11.80;85.30
66608;DHT22;53462;39.616;8.824;2023-02-15T17:30:01;11.80;85.40
66608;DHT22;53462;39.616;8.824;2023-02-15T17:32:30;11.80;85.20
66608;DHT22;53462;39.616;8.824;2023-02-15T17:37:45;11.50;86.40
66608;DHT22;53462;39.616;8.824;2023-02-15T17:40:26;11.50;87.50
66608;DHT22;53462;39.616;8.824;2023-02-15T17:42:52;11.70;87.60
66608;DHT22;53462;39.616;8.824;2023-02-15T17:45:20;11.60;87.60
66608;DHT22;53462;39.616;8.824;2023-02-15T17:47:48;11.50;88.10
66608;DHT22;53462;39.616;8.824;2023-02-15T17:50:26;11.50;88.30
66608;DHT22;53462;39.616;8.824;2023-02-15T17:52:54;11.40;88.60
66608;DHT22;53462;39.616;8.824;2023-02-15T17:55:22;11.40;89.20
66608;DHT22;53462;39.616;8.824;2023-02-15T17:58:03;11.30;89.40
66608;DHT22;53462;39.616;8.824;2023-02-15T18:00:30;11.20;90.20
66608;DHT22;53462;39.616;8.824;2023-02-15T18:03:15;11.10;90.80
66608;DHT22;53462;39.616;8.824;2023-02-15T18:06:00;11.20;91.20
66608;DHT22;53462;39.616;8.824;2023-02-15T18:08:45;11.20;91.40
66608;DHT22;53462;39.616;8.824;2023-02-15T18:11:29;11.00;91.30
66608;DHT22;53462;39.616;8.824;2023-02-15T18:14:07;11.00;91.40
66608;DHT22;53462;39.616;8.824;2023-02-15T18:16:36;11.00;91.30
66608;DHT22;53462;39.616;8.824;2023-02-15T18:19:04;11.00;91.40
66608;DHT22;53462;39.616;8.824;2023-02-15T18:21:31;11.00;91.50
66608;DHT22;53462;39.616;8.824;2023-02-15T18:23:58;10.90;91.50
66608;DHT22;53462;39.616;8.824;2023-02-15T18:26:25;10.80;91.90
66608;DHT22;53462;39.616;8.824;2023-02-15T18:28:51;10.80;92.40
66608;DHT22;53462;39.616;8.824;2023-02-15T18:31:18;10.80;92.80
66608;DHT22;53462;39.616;8.824;2023-02-15T18:33:51;10.80;92.90
66608;DHT22;53462;39.616;8.824;2023-02-15T18:36:24;10.80;92.90
66608;DHT22;53462;39.616;8.824;2023-02-15T18:38:55;10.50;92.50
66608;DHT22;53462;39.616;8.824;2023-02-15T18:41:22;10.30;92.60
66608;DHT22;53462;39.616;8.824;2023-02-15T18:43:49;10.00;93.20
66608;DHT22;53462;39.616;8.824;2023-02-15T18:46:16;9.90;94.10
66608;DHT22;53462;39.616;8.824;2023-02-15T18:48:42;9.90;94.70
66608;DHT22;53462;39.616;8.824;2023-02-15T18:51:22;9.70;95.50
66608;DHT22;53462;39.616;8.824;2023-02-15T18:53:50;9.50;97.00
66608;DHT22;53462;39.616;8.824;2023-02-15T18:56:20;9.50;99.50
66608;DHT22;53462;39.616;8.824;2023-02-15T18:58:46;9.40;99.90
66608;DHT22;53462;39.616;8.824;2023-02-15T19:01:14;9.40;99.90
66608;DHT22;53462;39.616;8.824;2023-02-15T19:03:48;9.30;99.90